Upstream stations:
Downstream station:
SHEF ID: WCOM7 Spring R A - Waco MO
STATION TYPE: Stream Gauge
Regulating: Stage = 19.00, Flow = 17743
PRECIP STAGE RIV-FLOW BAT-LOAD
in ft cfs volt
Ccp-Rev Ccp-Rev Ccp-Rev Ccp-Rev
(US/Central)
04/06 00:00 0.00 3.57 1245 12.83
04/06 01:00 0.00 3.56 1237 12.77
04/06 02:00 0.00 3.55 1230 12.77
04/06 03:00 0.00 3.58 1252 12.71
04/06 04:00 0.00 3.58 1252 12.71
04/06 05:00 0.00 3.51 1201 12.71
04/06 06:00 0.00 3.56 1237 12.65
04/06 07:00 0.00 3.52 1208 12.65
04/06 08:00 0.00 3.53 1215 12.65
04/06 09:00 0.00 3.52 1208 12.89
04/06 10:00 0.00 3.46 1165 13.53
04/06 11:00 0.00 3.46 1165 14.24
04/06 12:00 0.00 3.42 1136 14.12
04/06 13:00 0.00 3.44 1150 14.12
04/06 14:00 0.00 3.42 1136 14.18
04/06 15:00 0.00 3.38 1108 14.12
04/06 16:00 0.00 3.42 1136 14.12
04/06 17:00 0.00 3.38 1108 14.12
04/06 18:00 0.00 3.35 1087 14.06
04/06 19:00 0.00 3.33 1073 13.83
04/06 20:00 0.00 3.33 1073 13.42
04/06 21:00 0.00 3.34 1080 13.12
04/06 22:00 0.00 3.28 1039 12.89
04/06 23:00 0.00 3.28 1039 12.83